Time;durP1;ratioP1;P1;durP2;ratioP2;P2;SDS_P1;SDS_P2;PMS_P1;PMS_P2;Temp;Humidity;BMP_temperature;BMP_pressure;BME280_temperature;BME280_humidity;BME280_pressure;Samples;Min_cycle;Max_cycle;Signal;HPM_P1;HPM_P2
2023/10/25 00:00:14;;;;;;;;;;;11.80;99.90;;;;;;5119029;27;19982;-80
2023/10/25 00:02:41;;;;;;;;;;;11.80;99.90;;;;;;5118670;27;20747;-80
2023/10/25 00:05:08;;;;;;;;;;;11.80;99.90;;;;;;5115838;27;20009;-79
2023/10/25 00:07:35;;;;;;;;;;;11.80;99.90;;;;;;5117051;27;20061;-78
2023/10/25 00:10:01;;;;;;;;;;;11.80;99.90;;;;;;5117323;27;20003;-77
2023/10/25 00:12:28;;;;;;;;;;;11.80;99.90;;;;;;5120416;27;20089;-79
2023/10/25 00:14:56;;;;;;;;;;;11.80;99.90;;;;;;5123605;27;19986;-78
2023/10/25 00:17:22;;;;;;;;;;;11.80;99.90;;;;;;5120740;27;19994;-78
2023/10/25 00:19:50;;;;;;;;;;;11.70;99.90;;;;;;5118512;27;20465;-79
2023/10/25 00:22:17;;;;;;;;;;;11.80;99.90;;;;;;5116752;27;19994;-79
2023/10/25 00:24:43;;;;;;;;;;;11.70;99.90;;;;;;5118174;27;19974;-79
2023/10/25 00:27:10;;;;;;;;;;;11.70;99.90;;;;;;5120847;27;20450;-79
2023/10/25 00:29:36;;;;;;;;;;;11.70;99.90;;;;;;5117112;27;20005;-79
2023/10/25 00:32:05;;;;;;;;;;;11.70;99.90;;;;;;5116720;27;20412;-79
2023/10/25 00:34:31;;;;;;;;;;;11.70;99.90;;;;;;5116793;27;19975;-79
2023/10/25 00:36:58;;;;;;;;;;;11.70;99.90;;;;;;5107765;27;19979;-79
2023/10/25 00:39:25;;;;;;;;;;;11.70;99.90;;;;;;5111488;27;20066;-79
2023/10/25 00:41:51;;;;;;;;;;;11.70;99.90;;;;;;5114123;27;19991;-79
2023/10/25 00:44:18;;;;;;;;;;;11.70;99.90;;;;;;5116484;27;19974;-78
2023/10/25 00:46:45;;;;;;;;;;;11.70;99.90;;;;;;5116746;27;19997;-79
2023/10/25 00:49:13;;;;;;;;;;;11.60;99.90;;;;;;5115441;27;20051;-78
2023/10/25 00:51:40;;;;;;;;;;;11.60;99.90;;;;;;5117842;27;19975;-79
2023/10/25 00:54:07;;;;;;;;;;;11.60;99.90;;;;;;5114990;27;19979;-79
2023/10/25 00:56:34;;;;;;;;;;;11.60;99.90;;;;;;5113084;27;19981;-79
2023/10/25 00:59:00;;;;;;;;;;;11.60;99.90;;;;;;5115836;27;19986;-79
2023/10/25 01:01:29;;;;;;;;;;;11.60;99.90;;;;;;5114057;27;20601;-79
2023/10/25 01:03:56;;;;;;;;;;;11.50;99.90;;;;;;5117065;27;19983;-80
2023/10/25 01:06:24;;;;;;;;;;;11.60;99.90;;;;;;5111670;27;20006;-79
2023/10/25 01:08:52;;;;;;;;;;;11.60;99.90;;;;;;5116016;27;20068;-80
2023/10/25 01:11:18;;;;;;;;;;;11.60;99.90;;;;;;5116863;27;20604;-79
2023/10/25 01:13:45;;;;;;;;;;;11.50;99.90;;;;;;5115507;27;19994;-80
2023/10/25 01:16:11;;;;;;;;;;;11.50;99.90;;;;;;5113479;27;20013;-80
2023/10/25 01:18:38;;;;;;;;;;;11.50;99.90;;;;;;5114929;27;19982;-79
2023/10/25 01:21:05;;;;;;;;;;;11.50;99.90;;;;;;5115762;27;19981;-78
2023/10/25 01:23:33;;;;;;;;;;;11.50;99.90;;;;;;5113027;27;19990;-79
2023/10/25 01:26:00;;;;;;;;;;;11.50;99.90;;;;;;5114817;27;19978;-79
2023/10/25 01:28:26;;;;;;;;;;;11.50;99.90;;;;;;5116350;27;20268;-78
2023/10/25 01:30:53;;;;;;;;;;;11.40;99.90;;;;;;5118191;27;20585;-78
2023/10/25 01:33:19;;;;;;;;;;;11.50;99.90;;;;;;5120406;27;20719;-78
2023/10/25 01:35:46;;;;;;;;;;;11.50;99.90;;;;;;5118520;27;20616;-79
2023/10/25 01:38:13;;;;;;;;;;;11.40;99.90;;;;;;5117364;27;19979;-78
2023/10/25 01:40:41;;;;;;;;;;;11.40;99.90;;;;;;5114453;27;19978;-79
2023/10/25 01:43:07;;;;;;;;;;;11.40;99.90;;;;;;5121038;27;19990;-79
2023/10/25 01:45:34;;;;;;;;;;;11.40;99.90;;;;;;5113701;27;20002;-79
2023/10/25 01:48:00;;;;;;;;;;;11.40;99.90;;;;;;5117776;27;19978;-80
2023/10/25 01:50:27;;;;;;;;;;;11.40;99.90;;;;;;5116570;27;20487;-78
2023/10/25 01:52:54;;;;;;;;;;;11.40;99.90;;;;;;5117740;27;20002;-79
2023/10/25 01:55:20;;;;;;;;;;;11.30;99.90;;;;;;5117257;27;19979;-78
2023/10/25 01:57:48;;;;;;;;;;;11.30;99.90;;;;;;5120083;27;19985;-79
2023/10/25 02:00:15;;;;;;;;;;;11.30;99.90;;;;;;5122069;27;19982;-79
2023/10/25 02:02:42;;;;;;;;;;;11.30;99.90;;;;;;5109427;27;20073;-78
2023/10/25 02:05:08;;;;;;;;;;;11.30;99.90;;;;;;5115665;27;20509;-79
2023/10/25 02:07:35;;;;;;;;;;;11.30;99.90;;;;;;5113467;27;20028;-78
2023/10/25 02:10:02;;;;;;;;;;;11.30;99.90;;;;;;5113218;27;20001;-78
2023/10/25 02:12:28;;;;;;;;;;;11.20;99.90;;;;;;5116655;27;20006;-79
2023/10/25 02:14:56;;;;;;;;;;;11.30;99.90;;;;;;5114749;27;19978;-79
2023/10/25 02:17:23;;;;;;;;;;;11.20;99.90;;;;;;5118250;27;20002;-80
2023/10/25 02:19:49;;;;;;;;;;;11.20;99.90;;;;;;5116104;27;19982;-79
2023/10/25 02:22:16;;;;;;;;;;;11.20;99.90;;;;;;5119079;27;20001;-78
2023/10/25 02:24:42;;;;;;;;;;;11.20;99.90;;;;;;5118257;27;19985;-79
2023/10/25 02:27:09;;;;;;;;;;;11.20;99.90;;;;;;5117436;27;20304;-79
2023/10/25 02:29:36;;;;;;;;;;;11.20;99.90;;;;;;5116281;27;20118;-79
2023/10/25 02:32:07;;;;;;;;;;;11.20;99.90;;;;;;5117105;27;20503;-80
2023/10/25 02:34:35;;;;;;;;;;;11.10;99.90;;;;;;5123641;27;19978;-80
2023/10/25 02:37:02;;;;;;;;;;;11.10;99.90;;;;;;5121177;27;20740;-80
2023/10/25 02:39:28;;;;;;;;;;;11.10;99.90;;;;;;5117554;27;19979;-79
2023/10/25 02:41:55;;;;;;;;;;;11.10;99.90;;;;;;5109167;27;20663;-79
2023/10/25 02:44:22;;;;;;;;;;;11.10;99.90;;;;;;5110853;27;19979;-79
2023/10/25 02:46:48;;;;;;;;;;;11.10;99.90;;;;;;5121840;27;19997;-79
2023/10/25 02:49:16;;;;;;;;;;;11.10;99.90;;;;;;5119014;27;19994;-78
2023/10/25 02:51:44;;;;;;;;;;;11.10;99.90;;;;;;5117793;27;19979;-79
2023/10/25 02:54:10;;;;;;;;;;;11.00;99.90;;;;;;5115136;27;20055;-79
2023/10/25 02:56:37;;;;;;;;;;;11.00;99.90;;;;;;5112907;27;19979;-79
2023/10/25 02:59:04;;;;;;;;;;;11.00;99.90;;;;;;5114477;27;19978;-79
2023/10/25 03:01:30;;;;;;;;;;;11.00;99.90;;;;;;5115890;27;20573;-79
2023/10/25 03:03:57;;;;;;;;;;;11.00;99.90;;;;;;5114847;27;19983;-79
2023/10/25 03:06:25;;;;;;;;;;;10.90;99.90;;;;;;5111769;28;20029;-79
2023/10/25 03:08:52;;;;;;;;;;;10.90;99.90;;;;;;5116439;27;19974;-79
2023/10/25 03:11:19;;;;;;;;;;;10.90;99.90;;;;;;5122927;27;19982;-79
2023/10/25 03:13:46;;;;;;;;;;;10.90;99.90;;;;;;5121165;27;20002;-79
2023/10/25 03:16:13;;;;;;;;;;;10.90;99.90;;;;;;5120186;27;19994;-79
2023/10/25 03:18:40;;;;;;;;;;;10.90;99.90;;;;;;5121023;27;19979;-79
2023/10/25 03:21:06;;;;;;;;;;;10.90;99.90;;;;;;5120482;27;19979;-79
2023/10/25 03:23:34;;;;;;;;;;;10.90;99.90;;;;;;5121522;27;19994;-79
2023/10/25 03:26:05;;;;;;;;;;;10.90;99.90;;;;;;5120084;27;19978;-79
2023/10/25 03:28:32;;;;;;;;;;;10.80;99.90;;;;;;5124262;27;19985;-80
2023/10/25 03:30:58;;;;;;;;;;;10.90;99.90;;;;;;5126162;27;20748;-80
2023/10/25 03:33:25;;;;;;;;;;;10.80;99.90;;;;;;5118475;27;19994;-80
2023/10/25 03:35:52;;;;;;;;;;;10.80;99.90;;;;;;5131102;27;20025;-80
2023/10/25 03:38:19;;;;;;;;;;;10.80;99.90;;;;;;5118657;27;19975;-80
2023/10/25 03:40:47;;;;;;;;;;;10.80;99.90;;;;;;5116915;27;20009;-79
2023/10/25 03:43:14;;;;;;;;;;;10.80;99.90;;;;;;5123726;27;20546;-79
2023/10/25 03:45:40;;;;;;;;;;;10.70;99.90;;;;;;5121826;27;19994;-80
2023/10/25 03:48:07;;;;;;;;;;;10.70;99.90;;;;;;5122859;27;19986;-79
2023/10/25 03:50:33;;;;;;;;;;;10.70;99.90;;;;;;5123352;27;20300;-80
2023/10/25 03:53:00;;;;;;;;;;;10.70;99.90;;;;;;5123689;27;19998;-79
2023/10/25 03:55:27;;;;;;;;;;;10.70;99.90;;;;;;5125580;27;20357;-79
2023/10/25 03:57:54;;;;;;;;;;;10.70;99.90;;;;;;5118034;27;19986;-80
2023/10/25 04:00:21;;;;;;;;;;;10.70;99.90;;;;;;5126207;27;20354;-80
2023/10/25 04:02:48;;;;;;;;;;;10.70;99.90;;;;;;5121796;27;20583;-79
2023/10/25 04:05:14;;;;;;;;;;;10.60;99.90;;;;;;5118164;27;19983;-80
2023/10/25 04:07:41;;;;;;;;;;;10.60;99.90;;;;;;5121779;27;19986;-79
2023/10/25 04:10:09;;;;;;;;;;;10.70;99.90;;;;;;5123887;27;19999;-80
2023/10/25 04:12:35;;;;;;;;;;;10.60;99.90;;;;;;5123778;27;20001;-79
2023/10/25 04:15:04;;;;;;;;;;;10.60;99.90;;;;;;5114583;27;20542;-79
2023/10/25 04:17:30;;;;;;;;;;;10.60;99.90;;;;;;5122440;27;19994;-80
2023/10/25 04:19:57;;;;;;;;;;;10.60;99.90;;;;;;5122632;27;19979;-79
2023/10/25 04:22:24;;;;;;;;;;;10.60;99.90;;;;;;5116847;27;20603;-80
2023/10/25 04:24:50;;;;;;;;;;;10.60;99.90;;;;;;5120032;27;20413;-79
2023/10/25 04:27:17;;;;;;;;;;;10.60;99.90;;;;;;5113586;27;20070;-79
2023/10/25 04:29:44;;;;;;;;;;;10.60;99.90;;;;;;5121566;27;20001;-80
2023/10/25 04:32:12;;;;;;;;;;;10.50;99.90;;;;;;5122700;27;20003;-80
2023/10/25 04:34:38;;;;;;;;;;;10.50;99.90;;;;;;5124185;27;19987;-80
2023/10/25 04:37:05;;;;;;;;;;;10.50;99.90;;;;;;5116061;27;19975;-79
2023/10/25 04:39:32;;;;;;;;;;;10.50;99.90;;;;;;5119383;27;19982;-80
2023/10/25 04:41:58;;;;;;;;;;;10.50;99.90;;;;;;5122824;27;20020;-80
2023/10/25 04:44:25;;;;;;;;;;;10.50;99.90;;;;;;5121020;27;19978;-81
2023/10/25 04:46:51;;;;;;;;;;;10.50;99.90;;;;;;5114793;27;20060;-80
2023/10/25 04:49:19;;;;;;;;;;;10.50;99.90;;;;;;5129462;27;20466;-80
2023/10/25 04:51:46;;;;;;;;;;;10.40;99.90;;;;;;5124482;27;20041;-80
2023/10/25 04:54:13;;;;;;;;;;;10.40;99.90;;;;;;5119288;27;19985;-81
2023/10/25 04:56:39;;;;;;;;;;;10.40;99.90;;;;;;5119287;27;20035;-80
2023/10/25 04:59:06;;;;;;;;;;;10.40;99.90;;;;;;5115846;27;20602;-80
2023/10/25 05:01:33;;;;;;;;;;;10.40;99.90;;;;;;5115941;27;20378;-80
2023/10/25 05:03:59;;;;;;;;;;;10.40;99.90;;;;;;5100874;28;20030;-80
2023/10/25 05:06:28;;;;;;;;;;;10.40;99.90;;;;;;5125292;27;19986;-80
2023/10/25 05:08:55;;;;;;;;;;;10.40;99.90;;;;;;5118844;27;19979;-80
2023/10/25 05:11:24;;;;;;;;;;;10.30;99.90;;;;;;5119873;27;20001;-79
2023/10/25 05:13:51;;;;;;;;;;;10.30;99.90;;;;;;5113555;27;20021;-81
2023/10/25 05:16:17;;;;;;;;;;;10.30;99.90;;;;;;5119352;27;20035;-80
2023/10/25 05:18:44;;;;;;;;;;;10.30;99.90;;;;;;5118306;27;19974;-79
2023/10/25 05:21:11;;;;;;;;;;;10.30;99.90;;;;;;5116126;27;19974;-80
2023/10/25 05:23:40;;;;;;;;;;;10.30;99.90;;;;;;5121154;27;19994;-80
2023/10/25 05:26:08;;;;;;;;;;;10.30;99.90;;;;;;5113288;27;19979;-80
2023/10/25 05:28:35;;;;;;;;;;;10.30;99.90;;;;;;5111836;27;20069;-80
2023/10/25 05:31:02;;;;;;;;;;;10.30;99.90;;;;;;5117039;27;20002;-79
2023/10/25 05:33:30;;;;;;;;;;;10.20;99.90;;;;;;5113155;27;19990;-80
2023/10/25 05:35:57;;;;;;;;;;;10.20;99.90;;;;;;5123657;27;20019;-83
2023/10/25 05:38:24;;;;;;;;;;;10.20;99.90;;;;;;5116950;27;19995;-83
2023/10/25 05:40:53;;;;;;;;;;;10.20;99.90;;;;;;5119206;27;20055;-82
2023/10/25 05:43:23;;;;;;;;;;;10.20;99.90;;;;;;5114010;27;19998;-82
2023/10/25 05:45:50;;;;;;;;;;;10.20;99.90;;;;;;5114074;27;20701;-82
2023/10/25 05:48:17;;;;;;;;;;;10.20;99.90;;;;;;5116437;27;20621;-82
2023/10/25 05:50:44;;;;;;;;;;;10.20;99.90;;;;;;5114190;27;19998;-82
2023/10/25 05:53:12;;;;;;;;;;;10.20;99.90;;;;;;5116317;27;20495;-82
2023/10/25 05:55:39;;;;;;;;;;;10.10;99.90;;;;;;5118443;27;20483;-82
2023/10/25 05:58:08;;;;;;;;;;;10.10;99.90;;;;;;5113587;27;20573;-82
2023/10/25 06:00:35;;;;;;;;;;;10.20;99.90;;;;;;5115224;27;19994;-82
2023/10/25 06:03:02;;;;;;;;;;;10.10;99.90;;;;;;5110929;27;20009;-82
2023/10/25 06:05:32;;;;;;;;;;;10.10;99.90;;;;;;5120033;27;19983;-82
2023/10/25 06:07:59;;;;;;;;;;;10.10;99.90;;;;;;5117957;27;19979;-83
2023/10/25 06:10:26;;;;;;;;;;;10.10;99.90;;;;;;5114830;27;20001;-82
2023/10/25 06:12:53;;;;;;;;;;;10.10;99.90;;;;;;5116629;27;20090;-81
2023/10/25 06:15:21;;;;;;;;;;;10.10;99.90;;;;;;5111507;27;20084;-81
2023/10/25 06:17:48;;;;;;;;;;;10.10;99.90;;;;;;5115870;27;19985;-81
2023/10/25 06:20:19;;;;;;;;;;;10.10;99.90;;;;;;5115710;27;21137;-81
2023/10/25 06:22:46;;;;;;;;;;;10.10;99.90;;;;;;5113062;27;19991;-81
2023/10/25 06:25:12;;;;;;;;;;;10.00;99.90;;;;;;5117195;27;19974;-81
2023/10/25 06:27:39;;;;;;;;;;;10.10;99.90;;;;;;5117078;27;19986;-81
2023/10/25 06:30:06;;;;;;;;;;;10.00;99.90;;;;;;5114344;27;20061;-81
2023/10/25 06:32:34;;;;;;;;;;;10.10;99.90;;;;;;5117784;27;19990;-80
2023/10/25 06:35:01;;;;;;;;;;;10.10;99.90;;;;;;5121301;27;20728;-81
2023/10/25 06:37:28;;;;;;;;;;;10.00;99.90;;;;;;5110964;27;20062;-80
2023/10/25 06:39:55;;;;;;;;;;;10.00;99.90;;;;;;5110133;27;19985;-80
2023/10/25 06:42:22;;;;;;;;;;;10.00;99.90;;;;;;5113172;27;19990;-80
2023/10/25 06:44:48;;;;;;;;;;;10.00;99.90;;;;;;5107742;27;19981;-79
2023/10/25 06:47:15;;;;;;;;;;;10.00;99.90;;;;;;5107739;27;20927;-80
2023/10/25 06:49:44;;;;;;;;;;;10.00;99.90;;;;;;5113315;27;19974;-80
2023/10/25 06:52:11;;;;;;;;;;;10.00;99.90;;;;;;5106011;27;20002;-80
2023/10/25 06:54:38;;;;;;;;;;;10.00;99.90;;;;;;5116582;27;20431;-79
2023/10/25 06:57:05;;;;;;;;;;;10.00;99.90;;;;;;5112549;27;19982;-80
2023/10/25 06:59:31;;;;;;;;;;;10.00;99.90;;;;;;5115308;27;19983;-80
2023/10/25 07:02:04;;;;;;;;;;;10.00;99.90;;;;;;5109579;27;19998;-79
2023/10/25 07:04:32;;;;;;;;;;;10.00;99.90;;;;;;5114572;27;20061;-80
2023/10/25 07:07:00;;;;;;;;;;;10.00;99.90;;;;;;5116978;27;20439;-80
2023/10/25 07:09:27;;;;;;;;;;;10.00;99.90;;;;;;5115569;28;20123;-79
2023/10/25 07:11:54;;;;;;;;;;;10.00;99.90;;;;;;5112835;27;20584;-79
2023/10/25 07:14:20;;;;;;;;;;;10.00;99.90;;;;;;5115853;27;20424;-79
2023/10/25 07:16:47;;;;;;;;;;;10.00;99.90;;;;;;5107818;27;20532;-79
2023/10/25 07:19:13;;;;;;;;;;;10.00;99.90;;;;;;5110706;27;19975;-79
2023/10/25 07:21:41;;;;;;;;;;;10.00;99.90;;;;;;5107251;27;20241;-79
2023/10/25 07:24:09;;;;;;;;;;;10.00;99.90;;;;;;5107804;27;19987;-78
2023/10/25 07:26:36;;;;;;;;;;;10.00;99.90;;;;;;5113380;27;19985;-79
2023/10/25 07:29:02;;;;;;;;;;;10.00;99.90;;;;;;5109320;27;19978;-78
2023/10/25 07:31:30;;;;;;;;;;;10.00;99.90;;;;;;5107068;27;20424;-78
2023/10/25 07:33:56;;;;;;;;;;;10.00;99.90;;;;;;5106150;27;19978;-79
2023/10/25 07:36:24;;;;;;;;;;;10.00;99.90;;;;;;5105273;27;20376;-79
2023/10/25 07:38:52;;;;;;;;;;;10.00;99.90;;;;;;5102944;27;20105;-79
2023/10/25 07:41:20;;;;;;;;;;;10.00;99.90;;;;;;5112399;27;19975;-79
2023/10/25 07:43:46;;;;;;;;;;;10.00;99.90;;;;;;5110071;27;19997;-78
2023/10/25 07:46:13;;;;;;;;;;;10.00;99.90;;;;;;5104391;27;19990;-78
2023/10/25 07:48:40;;;;;;;;;;;10.00;99.90;;;;;;5108499;27;20427;-77
2023/10/25 07:51:06;;;;;;;;;;;10.00;99.90;;;;;;5107528;27;20055;-77
2023/10/25 07:53:33;;;;;;;;;;;10.00;99.90;;;;;;5108902;27;19998;-77
2023/10/25 07:56:02;;;;;;;;;;;10.00;99.90;;;;;;5108342;27;19982;-77
2023/10/25 07:58:30;;;;;;;;;;;10.00;99.90;;;;;;5111952;27;19979;-76
2023/10/25 08:00:56;;;;;;;;;;;10.00;99.90;;;;;;5111156;27;20413;-78
2023/10/25 08:03:24;;;;;;;;;;;10.00;99.90;;;;;;5111870;27;20001;-77
2023/10/25 08:05:51;;;;;;;;;;;10.00;99.90;;;;;;5112539;27;20494;-77
2023/10/25 08:08:17;;;;;;;;;;;10.00;99.90;;;;;;5118080;27;19985;-77
2023/10/25 08:10:44;;;;;;;;;;;10.00;99.90;;;;;;5117095;27;20454;-77
2023/10/25 08:13:11;;;;;;;;;;;10.10;99.90;;;;;;5107509;27;19997;-76
2023/10/25 08:15:39;;;;;;;;;;;10.00;99.90;;;;;;5113181;27;19990;-77
2023/10/25 08:18:06;;;;;;;;;;;10.10;99.90;;;;;;5107790;27;20093;-77
2023/10/25 08:20:35;;;;;;;;;;;10.10;99.90;;;;;;5112643;27;20094;-77
2023/10/25 08:23:02;;;;;;;;;;;10.10;99.90;;;;;;5108968;27;20143;-76
2023/10/25 08:25:29;;;;;;;;;;;10.10;99.90;;;;;;5103169;27;19979;-76
2023/10/25 08:27:55;;;;;;;;;;;10.10;99.90;;;;;;5105993;27;20351;-76
2023/10/25 08:30:22;;;;;;;;;;;10.10;99.90;;;;;;5110962;27;20110;-77
2023/10/25 08:32:50;;;;;;;;;;;10.10;99.90;;;;;;5109472;27;20182;-77
2023/10/25 08:35:17;;;;;;;;;;;10.20;99.90;;;;;;5117869;27;20410;-77
2023/10/25 08:37:44;;;;;;;;;;;10.20;99.90;;;;;;5110164;27;20527;-78
2023/10/25 08:40:11;;;;;;;;;;;10.20;99.90;;;;;;5112824;27;19979;-77
2023/10/25 08:42:38;;;;;;;;;;;10.20;99.90;;;;;;5115233;27;20113;-77
2023/10/25 08:45:05;;;;;;;;;;;10.20;99.90;;;;;;5111346;27;19978;-77
2023/10/25 08:47:32;;;;;;;;;;;10.20;99.90;;;;;;5112977;27;20001;-77
2023/10/25 08:49:59;;;;;;;;;;;10.20;99.90;;;;;;5114222;27;20280;-77
2023/10/25 08:52:26;;;;;;;;;;;10.30;99.90;;;;;;5111360;27;20007;-77
2023/10/25 08:54:53;;;;;;;;;;;10.30;99.90;;;;;;5110914;27;20359;-77
2023/10/25 08:57:19;;;;;;;;;;;10.40;99.90;;;;;;5113913;27;20020;-77
2023/10/25 08:59:47;;;;;;;;;;;10.30;99.90;;;;;;5111223;27;19999;-78
2023/10/25 09:02:14;;;;;;;;;;;10.30;99.90;;;;;;5108659;27;20583;-77
2023/10/25 09:04:57;;;;;;;;;;;10.40;99.90;;;;;;5107229;27;20081;-78
2023/10/25 09:07:32;;;;;;;;;;;10.40;99.90;;;;;;5111317;27;19974;-77
2023/10/25 09:09:59;;;;;;;;;;;10.40;99.90;;;;;;5110839;27;19974;-77
2023/10/25 09:12:26;;;;;;;;;;;10.40;99.90;;;;;;5114332;27;20017;-77
2023/10/25 09:14:53;;;;;;;;;;;10.40;99.90;;;;;;5112361;27;19988;-79
2023/10/25 09:17:19;;;;;;;;;;;10.50;99.90;;;;;;5115485;27;20534;-78
2023/10/25 09:19:46;;;;;;;;;;;10.50;99.90;;;;;;5110981;27;19978;-77
2023/10/25 09:22:23;;;;;;;;;;;10.40;99.90;;;;;;5110939;27;20028;-78
2023/10/25 09:24:51;;;;;;;;;;;10.50;99.90;;;;;;5109455;27;20010;-77
2023/10/25 09:27:18;;;;;;;;;;;10.50;99.90;;;;;;5112975;27;19974;-78
2023/10/25 09:29:45;;;;;;;;;;;10.50;99.90;;;;;;5114796;27;19978;-77
2023/10/25 09:32:11;;;;;;;;;;;10.60;99.90;;;;;;5113238;27;20005;-76
2023/10/25 09:34:38;;;;;;;;;;;10.60;99.90;;;;;;5111904;27;20324;-77
2023/10/25 09:37:07;;;;;;;;;;;10.60;99.90;;;;;;5109073;27;19986;-76
2023/10/25 09:39:35;;;;;;;;;;;10.60;99.90;;;;;;5110048;27;20844;-77
2023/10/25 09:42:05;;;;;;;;;;;10.60;99.90;;;;;;5106958;27;19990;-78
2023/10/25 09:44:35;;;;;;;;;;;10.60;99.90;;;;;;5112951;27;19978;-77
2023/10/25 09:47:03;;;;;;;;;;;10.60;99.90;;;;;;5107921;27;19994;-77
2023/10/25 09:49:30;;;;;;;;;;;10.60;99.90;;;;;;5093309;27;20416;-77
2023/10/25 09:52:06;;;;;;;;;;;10.60;99.90;;;;;;5112546;27;20400;-76
2023/10/25 09:54:33;;;;;;;;;;;10.70;99.90;;;;;;5110886;27;20327;-77
2023/10/25 09:57:02;;;;;;;;;;;10.70;99.90;;;;;;5112104;27;20289;-77
2023/10/25 09:59:30;;;;;;;;;;;10.70;99.90;;;;;;5109460;27;20061;-76
2023/10/25 10:01:57;;;;;;;;;;;10.70;99.90;;;;;;5108838;27;20005;-78
2023/10/25 10:04:28;;;;;;;;;;;10.80;99.90;;;;;;5107025;27;20000;-77
2023/10/25 10:07:02;;;;;;;;;;;10.80;99.90;;;;;;5107256;27;19978;-78
2023/10/25 10:09:32;;;;;;;;;;;10.80;99.90;;;;;;5106775;27;19982;-77
2023/10/25 10:12:03;;;;;;;;;;;10.80;99.90;;;;;;5107242;27;20059;-77
2023/10/25 10:14:32;;;;;;;;;;;10.80;99.90;;;;;;5107143;27;19974;-77
2023/10/25 10:17:00;;;;;;;;;;;10.90;99.90;;;;;;5111035;27;19994;-77
2023/10/25 10:19:26;;;;;;;;;;;10.80;99.90;;;;;;5111301;27;20093;-78
2023/10/25 10:22:03;;;;;;;;;;;10.90;99.90;;;;;;5111369;27;20041;-77
2023/10/25 10:24:46;;;;;;;;;;;10.90;99.90;;;;;;5112153;27;20093;-78
2023/10/25 10:27:14;;;;;;;;;;;10.90;99.90;;;;;;5116295;27;19992;-78
2023/10/25 10:29:42;;;;;;;;;;;10.90;99.90;;;;;;5114501;27;20050;-77
2023/10/25 10:32:09;;;;;;;;;;;10.90;99.90;;;;;;5115668;27;20403;-76
2023/10/25 10:34:40;;;;;;;;;;;10.90;99.90;;;;;;5113866;27;19989;-78
2023/10/25 10:37:08;;;;;;;;;;;10.90;99.90;;;;;;5110531;27;19982;-79
2023/10/25 10:39:34;;;;;;;;;;;11.00;99.90;;;;;;5110350;27;19977;-81
2023/10/25 10:42:02;;;;;;;;;;;11.00;99.90;;;;;;5111093;27;19998;-77
2023/10/25 10:44:28;;;;;;;;;;;11.00;99.90;;;;;;5110500;27;20017;-78
2023/10/25 10:46:58;;;;;;;;;;;11.10;99.90;;;;;;5102869;27;20002;-78
2023/10/25 10:49:28;;;;;;;;;;;11.00;99.90;;;;;;5114054;27;19985;-79
2023/10/25 10:51:56;;;;;;;;;;;11.10;99.90;;;;;;5108495;27;19999;-78
2023/10/25 10:54:22;;;;;;;;;;;11.10;99.90;;;;;;5111568;27;19978;-77
2023/10/25 10:56:49;;;;;;;;;;;11.10;99.90;;;;;;5104302;27;20371;-78
2023/10/25 10:59:16;;;;;;;;;;;11.10;99.90;;;;;;5111034;27;19989;-78
2023/10/25 11:01:43;;;;;;;;;;;11.10;99.90;;;;;;5111410;27;19994;-78
2023/10/25 11:04:11;;;;;;;;;;;11.20;99.90;;;;;;5113696;27;20583;-78
2023/10/25 11:06:39;;;;;;;;;;;11.20;99.90;;;;;;5116743;27;20339;-78
2023/10/25 11:09:08;;;;;;;;;;;11.20;99.90;;;;;;5107522;27;19983;-78
2023/10/25 11:11:35;;;;;;;;;;;11.20;99.90;;;;;;5111781;27;20019;-77
2023/10/25 11:14:02;;;;;;;;;;;11.20;99.90;;;;;;5112528;27;19978;-78
2023/10/25 11:16:29;;;;;;;;;;;11.30;99.90;;;;;;5108801;27;19991;-79
2023/10/25 11:19:05;;;;;;;;;;;11.30;99.90;;;;;;5118409;27;20075;-78
2023/10/25 11:21:33;;;;;;;;;;;11.30;99.90;;;;;;5111053;27;19974;-80
2023/10/25 11:24:01;;;;;;;;;;;11.30;99.90;;;;;;5115953;27;19974;-78
2023/10/25 11:26:28;;;;;;;;;;;11.30;99.90;;;;;;5113426;27;19975;-79
2023/10/25 11:28:55;;;;;;;;;;;11.40;99.90;;;;;;5110771;27;20000;-79
2023/10/25 11:31:22;;;;;;;;;;;11.40;99.90;;;;;;5112063;27;20002;-79
2023/10/25 11:33:49;;;;;;;;;;;11.40;99.90;;;;;;5120786;27;19990;-80
2023/10/25 11:36:15;;;;;;;;;;;11.40;99.90;;;;;;5123038;27;19974;-79
2023/10/25 11:38:44;;;;;;;;;;;11.50;99.90;;;;;;5119923;27;20069;-79
2023/10/25 11:41:11;;;;;;;;;;;11.50;99.90;;;;;;5119922;27;20050;-79
2023/10/25 11:43:39;;;;;;;;;;;11.50;99.90;;;;;;5115761;27;19990;-79
2023/10/25 11:46:05;;;;;;;;;;;11.50;99.90;;;;;;5117786;27;20001;-79
2023/10/25 11:48:34;;;;;;;;;;;11.50;99.90;;;;;;5115900;27;19975;-79
2023/10/25 11:51:00;;;;;;;;;;;11.50;99.90;;;;;;5119271;27;19978;-78
2023/10/25 11:53:27;;;;;;;;;;;11.60;99.90;;;;;;5117622;27;20002;-79
2023/10/25 11:55:58;;;;;;;;;;;11.60;99.90;;;;;;5119125;27;19978;-78
2023/10/25 11:58:28;;;;;;;;;;;11.60;99.90;;;;;;5119451;27;20022;-78
2023/10/25 12:00:55;;;;;;;;;;;11.60;99.90;;;;;;5117531;27;20044;-79
2023/10/25 12:03:21;;;;;;;;;;;11.60;99.90;;;;;;5116027;27;20061;-79
2023/10/25 12:05:48;;;;;;;;;;;11.60;99.90;;;;;;5116935;27;19986;-78
2023/10/25 12:08:15;;;;;;;;;;;11.60;99.90;;;;;;5118735;27;20459;-78
2023/10/25 12:10:41;;;;;;;;;;;11.70;99.90;;;;;;5117211;27;19981;-78
2023/10/25 12:13:09;;;;;;;;;;;11.70;99.90;;;;;;5118238;27;20093;-78
2023/10/25 12:15:36;;;;;;;;;;;11.70;99.90;;;;;;5110856;27;20055;-78
2023/10/25 12:18:02;;;;;;;;;;;11.80;99.90;;;;;;5108928;27;19974;-77
2023/10/25 12:20:29;;;;;;;;;;;11.80;99.90;;;;;;5112278;27;20391;-77
2023/10/25 12:22:56;;;;;;;;;;;11.80;99.90;;;;;;5111081;27;20042;-77
2023/10/25 12:25:24;;;;;;;;;;;11.80;99.90;;;;;;5103821;27;20494;-78
2023/10/25 12:27:50;;;;;;;;;;;11.80;99.90;;;;;;5108214;27;19986;-78
2023/10/25 12:30:18;;;;;;;;;;;11.80;99.90;;;;;;5108643;27;20499;-78
2023/10/25 12:32:45;;;;;;;;;;;11.80;99.90;;;;;;5113750;27;20537;-78
2023/10/25 12:35:12;;;;;;;;;;;11.90;99.90;;;;;;5115886;27;20562;-77
2023/10/25 12:37:38;;;;;;;;;;;11.90;99.90;;;;;;5121529;27;19982;-78
2023/10/25 12:40:06;;;;;;;;;;;11.90;99.90;;;;;;5114150;27;20756;-77
2023/10/25 12:42:32;;;;;;;;;;;11.90;99.90;;;;;;5114592;27;20478;-77
2023/10/25 12:45:00;;;;;;;;;;;11.90;99.90;;;;;;5114226;27;19975;-78
2023/10/25 12:47:29;;;;;;;;;;;11.90;99.90;;;;;;5107995;27;19998;-77
2023/10/25 12:49:56;;;;;;;;;;;11.90;99.90;;;;;;5119075;27;19978;-77
2023/10/25 12:52:22;;;;;;;;;;;12.00;99.90;;;;;;5115211;27;20001;-78
2023/10/25 12:54:49;;;;;;;;;;;12.00;99.90;;;;;;5114114;27;19982;-77
2023/10/25 12:57:15;;;;;;;;;;;12.00;99.90;;;;;;5112611;27;19974;-77
2023/10/25 12:59:42;;;;;;;;;;;12.00;99.90;;;;;;5111726;27;19974;-76
2023/10/25 13:02:09;;;;;;;;;;;12.00;99.90;;;;;;5114979;27;20010;-77
2023/10/25 13:04:37;;;;;;;;;;;12.00;99.90;;;;;;5114775;27;20112;-77
2023/10/25 13:07:03;;;;;;;;;;;12.00;99.90;;;;;;5116166;27;20207;-78
2023/10/25 13:09:30;;;;;;;;;;;12.00;99.90;;;;;;5115673;27;20100;-77
2023/10/25 13:11:56;;;;;;;;;;;12.00;99.90;;;;;;5117011;27;19994;-77
2023/10/25 13:14:25;;;;;;;;;;;12.00;99.90;;;;;;5117464;27;20001;-77
2023/10/25 13:16:52;;;;;;;;;;;12.10;99.90;;;;;;5117316;27;19993;-78
2023/10/25 13:19:19;;;;;;;;;;;12.10;99.90;;;;;;5113590;27;19975;-78
2023/10/25 13:21:47;;;;;;;;;;;12.10;99.90;;;;;;5117905;27;19994;-77
2023/10/25 13:24:14;;;;;;;;;;;12.10;99.90;;;;;;5111844;27;19975;-77
2023/10/25 13:26:40;;;;;;;;;;;12.10;99.90;;;;;;5112313;27;19974;-77
2023/10/25 13:29:07;;;;;;;;;;;12.10;99.90;;;;;;5116520;27;20052;-77
2023/10/25 13:31:35;;;;;;;;;;;12.10;99.90;;;;;;5108749;27;20002;-77
2023/10/25 13:34:01;;;;;;;;;;;12.20;99.90;;;;;;5111202;27;19994;-77
2023/10/25 13:36:28;;;;;;;;;;;12.20;99.90;;;;;;5111589;27;20450;-78
2023/10/25 13:38:56;;;;;;;;;;;12.20;99.90;;;;;;5118909;27;19985;-78
2023/10/25 13:41:23;;;;;;;;;;;12.20;99.90;;;;;;5109848;27;19978;-78
2023/10/25 13:43:49;;;;;;;;;;;12.20;99.90;;;;;;5113880;27;19979;-78
2023/10/25 13:46:16;;;;;;;;;;;12.30;99.90;;;;;;5116655;27;19986;-79
2023/10/25 13:48:43;;;;;;;;;;;12.30;99.90;;;;;;5116601;27;20700;-82
2023/10/25 13:51:10;;;;;;;;;;;12.30;99.90;;;;;;5117880;27;20159;-82
2023/10/25 13:53:37;;;;;;;;;;;12.40;99.90;;;;;;5116562;27;20055;-81
2023/10/25 13:56:05;;;;;;;;;;;12.40;99.90;;;;;;5116460;27;20317;-82
2023/10/25 13:58:32;;;;;;;;;;;12.40;99.90;;;;;;5112207;27;20026;-82
2023/10/25 14:01:02;;;;;;;;;;;12.40;99.90;;;;;;5114126;27;20466;-81
2023/10/25 14:03:29;;;;;;;;;;;12.50;99.90;;;;;;5114935;27;20085;-82
2023/10/25 14:05:56;;;;;;;;;;;12.50;99.90;;;;;;5116013;27;19986;-82
2023/10/25 14:08:22;;;;;;;;;;;12.50;99.90;;;;;;5119101;27;19974;-82
2023/10/25 14:10:49;;;;;;;;;;;12.50;99.90;;;;;;5117655;27;19978;-81
2023/10/25 14:13:19;;;;;;;;;;;12.50;99.90;;;;;;5117716;27;20006;-82
2023/10/25 14:15:46;;;;;;;;;;;12.50;99.90;;;;;;5116647;27;20000;-82